createdAt,value
2022-09-15T00:01:23.422Z,71.56
2022-09-15T00:03:51.782Z,71.78
2022-09-15T00:06:21.165Z,71.26
2022-09-15T00:08:48.973Z,70.87
2022-09-15T00:11:19.437Z,71.05
2022-09-15T00:13:47.651Z,71.75
2022-09-15T00:16:16.155Z,72.37
2022-09-15T00:18:45.103Z,71.72
2022-09-15T00:21:15.136Z,71.60
2022-09-15T00:23:44.907Z,71.06
2022-09-15T00:26:16.136Z,70.31
2022-09-15T00:28:44.778Z,70.91
2022-09-15T00:31:18.527Z,70.95
2022-09-15T00:33:48.162Z,70.87
2022-09-15T00:36:17.176Z,70.31
2022-09-15T00:38:47.175Z,69.90
2022-09-15T00:41:17.586Z,69.82
2022-09-15T00:43:52.218Z,69.27
2022-09-15T00:46:23.604Z,68.85
2022-09-15T00:48:56.855Z,69.45
2022-09-15T00:51:31.045Z,69.78
2022-09-15T00:54:02.943Z,69.65
2022-09-15T00:56:34.372Z,70.02
2022-09-15T00:59:04.816Z,69.67
2022-09-15T01:01:33.280Z,70.05
2022-09-15T01:04:01.659Z,69.45
2022-09-15T01:06:34.938Z,68.90
2022-09-15T01:09:11.540Z,68.76
2022-09-15T01:11:40.962Z,68.88
2022-09-15T01:14:08.796Z,68.91
2022-09-15T01:16:48.996Z,69.22
2022-09-15T01:19:40.629Z,69.37
2022-09-15T01:22:17.187Z,69.11
2022-09-15T01:25:01.621Z,69.75
2022-09-15T01:27:52.728Z,71.03
2022-09-15T01:30:23.059Z,71.21
2022-09-15T01:33:08.753Z,70.82
2022-09-15T01:36:02.212Z,70.75
2022-09-15T01:38:45.378Z,70.75
2022-09-15T01:41:17.200Z,69.90
2022-09-15T01:43:51.551Z,69.53
2022-09-15T01:46:25.140Z,70.10
2022-09-15T01:48:56.003Z,70.15
2022-09-15T01:51:27.273Z,70.17
2022-09-15T01:53:57.070Z,72.00
2022-09-15T01:56:24.873Z,71.40
2022-09-15T01:58:53.009Z,71.79
2022-09-15T02:01:32.214Z,71.27
2022-09-15T02:04:06.245Z,71.18
2022-09-15T02:06:43.224Z,71.48
2022-09-15T02:09:15.726Z,71.64
2022-09-15T02:11:55.283Z,71.15
2022-09-15T02:14:39.075Z,72.06
2022-09-15T02:17:17.053Z,73.61
2022-09-15T02:19:51.472Z,73.25
2022-09-15T02:22:23.828Z,73.06
2022-09-15T02:24:57.495Z,74.61
2022-09-15T02:27:29.841Z,75.11
2022-09-15T02:30:03.329Z,73.40
2022-09-15T02:32:36.026Z,73.64
2022-09-15T02:35:08.244Z,72.84
2022-09-15T02:37:37.877Z,72.07
2022-09-15T02:40:07.548Z,71.95
2022-09-15T02:42:37.136Z,72.14
2022-09-15T02:45:06.153Z,72.05
2022-09-15T02:47:35.257Z,71.45
2022-09-15T02:50:03.041Z,70.71
2022-09-15T02:52:30.868Z,71.96
2022-09-15T02:54:59.300Z,71.22
2022-09-15T02:57:27.035Z,71.64
2022-09-15T03:00:12.626Z,71.08
2022-09-15T03:02:42.779Z,70.87
2022-09-15T03:05:10.966Z,70.38
2022-09-15T03:07:39.063Z,69.73
2022-09-15T03:10:08.632Z,69.27
2022-09-15T03:12:39.205Z,69.17
2022-09-15T03:15:09.169Z,68.53
2022-09-15T03:17:37.586Z,69.06
2022-09-15T03:20:08.452Z,68.54
2022-09-15T03:22:36.311Z,68.96
2022-09-15T03:25:05.745Z,68.63
2022-09-15T03:27:34.107Z,68.79
2022-09-15T03:30:01.957Z,68.52
2022-09-15T03:32:29.959Z,68.49
2022-09-15T03:34:58.644Z,68.25
2022-09-15T03:37:28.149Z,68.30
2022-09-15T03:39:56.053Z,68.83
2022-09-15T03:42:23.851Z,68.05
2022-09-15T03:44:51.581Z,68.30
2022-09-15T03:47:19.352Z,68.13
2022-09-15T03:49:47.105Z,68.07
2022-09-15T03:52:14.838Z,68.19
2022-09-15T03:54:44.205Z,68.51
2022-09-15T03:57:11.943Z,68.02
2022-09-15T03:59:39.786Z,67.95
2022-09-15T04:02:07.562Z,67.86
2022-09-15T04:04:35.382Z,68.11
2022-09-15T04:07:03.083Z,67.58
2022-09-15T04:09:31.452Z,67.75
2022-09-15T04:12:00.695Z,68.08
2022-09-15T04:14:28.522Z,68.37
2022-09-15T04:16:56.260Z,68.21
2022-09-15T04:19:24.155Z,68.44
2022-09-15T04:21:51.865Z,68.30
2022-09-15T04:24:19.676Z,68.16
2022-09-15T04:26:47.507Z,68.35
2022-09-15T04:29:17.607Z,67.86
2022-09-15T04:31:45.600Z,67.96
2022-09-15T04:34:13.716Z,67.95
2022-09-15T04:36:41.409Z,67.91
2022-09-15T04:39:09.215Z,67.60
2022-09-15T04:41:37.068Z,67.85
2022-09-15T04:44:05.071Z,67.85
2022-09-15T04:46:34.199Z,68.00
2022-09-15T04:49:02.053Z,67.87
2022-09-15T04:51:29.990Z,67.84
2022-09-15T04:53:58.741Z,67.49
2022-09-15T04:56:27.250Z,68.02
2022-09-15T04:59:03.148Z,67.85
2022-09-15T05:01:33.798Z,67.49
2022-09-15T05:04:04.628Z,67.65
2022-09-15T05:06:33.183Z,67.83
2022-09-15T05:09:01.169Z,68.12
2022-09-15T05:11:30.959Z,68.07
2022-09-15T05:13:58.759Z,68.60
2022-09-15T05:16:28.201Z,68.25
2022-09-15T05:18:58.977Z,67.39
2022-09-15T05:21:28.988Z,67.52
2022-09-15T05:23:57.076Z,67.09
2022-09-15T05:26:27.269Z,67.60
2022-09-15T05:28:56.496Z,67.30
2022-09-15T05:31:27.044Z,68.02
2022-09-15T05:33:55.466Z,68.29
2022-09-15T05:36:25.248Z,68.20
2022-09-15T05:38:56.637Z,68.22
2022-09-15T05:41:25.183Z,67.99
2022-09-15T05:43:54.305Z,67.47
2022-09-15T05:46:22.968Z,67.45
2022-09-15T05:48:51.319Z,67.07
2022-09-15T05:51:19.131Z,67.31
2022-09-15T05:53:46.924Z,66.78
2022-09-15T05:56:17.003Z,67.82
2022-09-15T05:58:47.452Z,66.96
2022-09-15T06:01:17.539Z,67.77
2022-09-15T06:03:45.597Z,68.18
2022-09-15T06:06:13.701Z,68.76
2022-09-15T06:08:55.463Z,68.04
2022-09-15T06:11:28.775Z,67.45
2022-09-15T06:13:56.754Z,67.18
2022-09-15T06:16:26.782Z,66.67
2022-09-15T06:18:55.513Z,67.67
2022-09-15T06:21:26.960Z,67.81
2022-09-15T06:23:55.436Z,67.87
2022-09-15T06:26:24.304Z,67.55
2022-09-15T06:28:56.252Z,67.26
2022-09-15T06:31:26.246Z,67.06
2022-09-15T06:33:57.956Z,66.63
2022-09-15T06:36:28.675Z,65.28
2022-09-15T06:38:57.483Z,64.27
2022-09-15T06:41:25.385Z,63.99
2022-09-15T06:43:54.453Z,62.22
2022-09-15T06:46:25.161Z,63.76
2022-09-15T06:48:53.817Z,64.62
2022-09-15T06:51:23.912Z,65.60
2022-09-15T06:53:51.988Z,65.86
2022-09-15T06:56:21.108Z,65.01
2022-09-15T06:58:49.876Z,63.57
2022-09-15T07:01:24.277Z,62.59
2022-09-15T07:03:52.938Z,63.04
2022-09-15T07:06:21.469Z,62.80
2022-09-15T07:08:51.013Z,63.14
2022-09-15T07:11:19.565Z,63.90
2022-09-15T07:13:49.068Z,63.98
2022-09-15T07:16:17.538Z,64.96
2022-09-15T07:18:47.284Z,64.62
2022-09-15T07:21:18.359Z,63.89
2022-09-15T07:23:46.284Z,63.44
2022-09-15T07:26:19.536Z,62.66
2022-09-15T07:28:50.866Z,62.38
2022-09-15T07:31:21.571Z,61.95
2022-09-15T07:33:54.234Z,60.83
2022-09-15T07:36:22.611Z,59.25
2022-09-15T07:38:51.520Z,59.60
2022-09-15T07:41:22.187Z,58.44
2022-09-15T07:43:51.442Z,57.48
2022-09-15T07:46:20.970Z,57.39
2022-09-15T07:48:53.103Z,57.63
2022-09-15T07:51:21.716Z,55.57
2022-09-15T07:53:50.317Z,52.34
2022-09-15T07:56:18.831Z,48.77
2022-09-15T07:58:47.167Z,44.69
2022-09-15T08:01:16.163Z,43.68
2022-09-15T08:03:46.310Z,46.23
2022-09-15T08:06:16.385Z,46.67
2022-09-15T08:08:45.019Z,45.65
2022-09-15T08:11:18.842Z,43.12
2022-09-15T08:13:47.816Z,41.39
2022-09-15T08:16:18.433Z,40.61
2022-09-15T08:18:46.718Z,38.97
2022-09-15T08:21:20.139Z,43.51
2022-09-15T08:23:52.410Z,43.19
2022-09-15T08:26:20.353Z,45.67
2022-09-15T08:28:48.618Z,46.77
2022-09-15T08:31:17.369Z,50.55
2022-09-15T08:33:48.972Z,49.89
2022-09-15T08:36:18.651Z,44.61
2022-09-15T08:38:47.511Z,44.48
2022-09-15T08:41:19.825Z,47.72
2022-09-15T08:43:53.926Z,48.41
2022-09-15T08:46:26.510Z,52.55
2022-09-15T08:49:03.161Z,56.19
2022-09-15T08:51:41.336Z,56.29
2022-09-15T08:54:16.676Z,56.33
2022-09-15T08:56:44.696Z,56.92
2022-09-15T08:59:15.286Z,57.57
2022-09-15T09:01:54.224Z,58.64
2022-09-15T09:04:33.781Z,58.25
2022-09-15T09:07:15.363Z,57.85
2022-09-15T09:09:50.750Z,56.23
2022-09-15T09:12:31.366Z,56.17
2022-09-15T09:15:16.982Z,57.66
2022-09-15T09:18:09.283Z,57.44
2022-09-15T09:20:49.892Z,56.66
2022-09-15T09:23:24.813Z,55.85
2022-09-15T09:25:53.717Z,54.61
2022-09-15T09:28:30.204Z,52.52
2022-09-15T09:33:59.853Z,53.45
2022-09-15T09:36:28.198Z,53.50
2022-09-15T09:38:58.553Z,55.40
2022-09-15T09:41:35.653Z,55.59
2022-09-15T09:44:05.284Z,56.82
2022-09-15T09:46:33.129Z,56.11
2022-09-15T09:49:05.201Z,57.38
2022-09-15T09:51:36.508Z,57.87
2022-09-15T09:54:16.152Z,58.53
2022-09-15T09:56:45.417Z,58.74
2022-09-15T09:59:40.474Z,59.24
2022-09-15T10:02:20.113Z,57.20
2022-09-15T10:04:50.233Z,55.43
2022-09-15T10:07:20.607Z,51.06
2022-09-15T10:09:55.894Z,51.54
2022-09-15T10:12:28.044Z,54.90
2022-09-15T10:14:58.333Z,55.48
2022-09-15T10:17:29.165Z,55.30
2022-09-15T10:19:58.849Z,54.87
2022-09-15T10:22:32.077Z,54.76
2022-09-15T10:25:03.066Z,55.11
2022-09-15T10:27:33.029Z,55.18
2022-09-15T10:30:18.209Z,56.02
2022-09-15T10:32:46.331Z,55.94
2022-09-15T10:35:16.695Z,55.12
2022-09-15T10:38:04.803Z,56.82
2022-09-15T10:40:40.230Z,57.47
2022-09-15T10:43:25.684Z,55.82
2022-09-15T10:46:03.154Z,53.34
2022-09-15T10:48:44.954Z,54.89
2022-09-15T10:51:28.904Z,51.04
2022-09-15T10:54:20.740Z,47.79
2022-09-15T10:56:53.084Z,50.10
2022-09-15T10:59:39.629Z,50.76
2022-09-15T11:02:25.531Z,49.59
2022-09-15T11:05:13.975Z,51.15
2022-09-15T11:07:49.437Z,53.12
2022-09-15T11:10:26.446Z,54.53
2022-09-15T11:13:06.894Z,52.01
2022-09-15T11:15:50.443Z,52.92
2022-09-15T11:18:35.825Z,52.53
2022-09-15T11:21:18.548Z,53.84
2022-09-15T11:23:52.808Z,54.74
2022-09-15T11:26:24.858Z,55.07
2022-09-15T11:29:00.489Z,53.13
2022-09-15T11:31:32.485Z,54.03
2022-09-15T11:34:06.784Z,56.36
2022-09-15T11:36:38.798Z,56.32
2022-09-15T11:39:11.742Z,57.68
2022-09-15T11:41:43.075Z,58.44
2022-09-15T11:44:23.195Z,58.21
2022-09-15T11:47:15.524Z,57.63
2022-09-15T11:49:48.800Z,57.56
2022-09-15T11:52:29.994Z,56.79
2022-09-15T11:55:03.762Z,56.49
2022-09-15T11:57:37.438Z,56.42
2022-09-15T12:00:13.462Z,56.44
2022-09-15T12:02:47.505Z,56.76
2022-09-15T12:05:20.801Z,57.06
2022-09-15T12:07:54.135Z,56.17
2022-09-15T12:10:26.740Z,55.25
2022-09-15T12:12:55.640Z,54.14
2022-09-15T12:15:27.515Z,54.22
2022-09-15T12:18:27.349Z,53.65
2022-09-15T12:21:01.776Z,51.81
2022-09-15T12:23:34.965Z,50.69
2022-09-15T12:26:14.699Z,50.91
2022-09-15T12:28:54.318Z,49.54
2022-09-15T12:31:32.754Z,50.54
2022-09-15T12:34:03.603Z,51.70
2022-09-15T12:36:43.953Z,51.53
2022-09-15T12:39:28.909Z,52.05
2022-09-15T12:42:06.601Z,51.24
2022-09-15T12:44:37.671Z,50.23
2022-09-15T12:47:18.131Z,50.74
2022-09-15T12:49:47.653Z,48.68
2022-09-15T12:52:17.019Z,47.86
2022-09-15T12:54:51.824Z,48.69
2022-09-15T12:57:25.434Z,48.43
2022-09-15T13:00:18.203Z,49.40
2022-09-15T13:02:49.494Z,49.52
2022-09-15T13:05:53.843Z,50.74
2022-09-15T13:08:46.988Z,51.55
2022-09-15T13:11:18.204Z,50.81
2022-09-15T13:13:50.885Z,49.27
2022-09-15T13:16:26.969Z,49.14
2022-09-15T13:19:08.668Z,50.27
2022-09-15T13:21:39.026Z,51.15
2022-09-15T13:24:15.381Z,51.33
2022-09-15T13:26:45.845Z,52.85
2022-09-15T13:29:16.399Z,52.00
2022-09-15T13:31:53.386Z,51.19
2022-09-15T13:35:05.277Z,51.67
2022-09-15T13:38:08.142Z,51.18
2022-09-15T13:41:10.544Z,50.89
2022-09-15T13:44:12.459Z,51.94
2022-09-15T13:46:54.468Z,51.66
2022-09-15T13:49:49.285Z,52.64
2022-09-15T13:52:33.818Z,52.69
2022-09-15T13:55:19.522Z,53.72
2022-09-15T14:00:55.147Z,52.06
2022-09-15T14:03:27.472Z,52.04
2022-09-15T14:05:57.721Z,52.41
2022-09-15T14:08:29.532Z,53.22
2022-09-15T14:11:01.138Z,53.00
2022-09-15T14:13:31.058Z,54.40
2022-09-15T14:16:01.009Z,54.22
2022-09-15T14:18:29.155Z,53.77
2022-09-15T14:21:03.844Z,55.05
2022-09-15T14:23:33.097Z,55.71
2022-09-15T14:26:02.954Z,54.57
2022-09-15T14:28:33.202Z,54.62
2022-09-15T14:31:26.815Z,55.22
2022-09-15T14:33:55.255Z,55.04
2022-09-15T14:36:27.687Z,56.59
2022-09-15T14:39:18.138Z,56.57
2022-09-15T14:41:46.601Z,56.14
2022-09-15T14:47:14.790Z,56.44
2022-09-15T14:49:42.568Z,55.69
2022-09-15T14:52:24.783Z,56.97
2022-09-15T14:54:56.600Z,57.23
2022-09-15T14:57:30.875Z,57.46
2022-09-15T15:00:04.734Z,57.37
2022-09-15T15:02:48.987Z,57.76
2022-09-15T15:05:20.674Z,58.28
2022-09-15T15:07:50.884Z,58.58
2022-09-15T15:10:22.854Z,58.22
2022-09-15T15:12:53.341Z,58.49
2022-09-15T15:15:22.057Z,59.34
2022-09-15T15:17:51.517Z,61.27
2022-09-15T15:20:22.766Z,62.64
2022-09-15T15:23:12.831Z,63.13
2022-09-15T15:25:41.759Z,63.49
2022-09-15T15:28:30.923Z,63.58
2022-09-15T15:31:38.769Z,63.27
2022-09-15T15:34:23.919Z,62.34
2022-09-15T15:36:51.795Z,62.11
2022-09-15T15:39:25.824Z,62.21
2022-09-15T15:42:02.394Z,62.72
2022-09-15T15:44:31.718Z,62.31
2022-09-15T15:47:02.705Z,62.19
2022-09-15T15:49:32.746Z,61.16
2022-09-15T15:52:01.746Z,61.49
2022-09-15T15:54:34.365Z,61.39
2022-09-15T15:57:24.376Z,60.62
2022-09-15T15:59:56.980Z,60.56
2022-09-15T16:02:26.358Z,60.60
2022-09-15T16:04:54.993Z,61.16
2022-09-15T16:07:29.926Z,60.56
2022-09-15T16:10:02.469Z,61.06
2022-09-15T16:12:33.208Z,60.05
2022-09-15T16:15:08.123Z,60.11
2022-09-15T16:17:36.045Z,60.04
2022-09-15T16:20:04.081Z,59.82
2022-09-15T16:22:32.030Z,60.24
2022-09-15T16:25:01.415Z,59.72
2022-09-15T16:27:30.191Z,60.08
2022-09-15T16:29:58.000Z,60.51
2022-09-15T16:32:25.915Z,60.78
2022-09-15T16:34:54.892Z,60.57
2022-09-15T16:37:23.099Z,60.61
2022-09-15T16:39:52.620Z,60.64
2022-09-15T16:42:22.287Z,60.68
2022-09-15T16:44:50.740Z,60.38
2022-09-15T16:47:19.105Z,60.80
2022-09-15T16:49:47.559Z,60.79
2022-09-15T16:52:16.852Z,60.65
2022-09-15T16:54:44.692Z,60.28
2022-09-15T16:57:12.580Z,60.22
2022-09-15T16:59:42.337Z,61.24
2022-09-15T17:02:14.597Z,60.63
2022-09-15T17:04:42.727Z,61.05
2022-09-15T17:07:10.593Z,60.44
2022-09-15T17:09:38.417Z,61.10
2022-09-15T17:12:06.729Z,61.47
2022-09-15T17:14:34.569Z,61.85
2022-09-15T17:17:04.728Z,61.84
2022-09-15T17:19:32.624Z,61.69
2022-09-15T17:22:00.527Z,61.85
2022-09-15T17:24:28.515Z,61.81
2022-09-15T17:26:56.286Z,62.13
2022-09-15T17:29:24.273Z,61.50
2022-09-15T17:31:52.379Z,62.36
2022-09-15T17:34:21.634Z,61.32
2022-09-15T17:36:49.569Z,61.32
2022-09-15T17:39:17.368Z,60.42
2022-09-15T17:41:47.115Z,60.64
2022-09-15T17:44:14.885Z,60.10
2022-09-15T17:46:42.797Z,60.20
2022-09-15T17:49:10.667Z,59.44
2022-09-15T17:51:39.793Z,59.36
2022-09-15T17:54:10.525Z,58.40
2022-09-15T17:56:38.311Z,59.19
2022-09-15T17:59:06.066Z,59.31
2022-09-15T18:01:33.986Z,59.06
2022-09-15T18:04:02.739Z,58.92
2022-09-15T18:06:30.599Z,58.89
2022-09-15T18:08:59.787Z,58.95
2022-09-15T18:11:28.880Z,59.06
2022-09-15T18:13:58.186Z,59.13
2022-09-15T18:16:26.009Z,59.13
2022-09-15T18:18:54.326Z,59.63
2022-09-15T18:21:27.840Z,59.43
2022-09-15T18:23:55.910Z,59.94
2022-09-15T18:26:26.534Z,59.83
2022-09-15T18:28:55.745Z,60.72
2022-09-15T18:31:23.881Z,61.40
2022-09-15T18:33:51.894Z,60.89
2022-09-15T18:36:19.721Z,61.47
2022-09-15T18:38:47.649Z,61.61
2022-09-15T18:41:15.416Z,61.76
2022-09-15T18:43:48.909Z,62.31
2022-09-15T18:46:18.469Z,62.30
2022-09-15T18:48:46.475Z,62.31
2022-09-15T18:51:23.783Z,63.07
2022-09-15T18:53:54.446Z,63.45
2022-09-15T18:56:22.506Z,62.65
2022-09-15T18:58:54.960Z,63.47
2022-09-15T19:01:23.256Z,63.62
2022-09-15T19:03:51.157Z,63.63
2022-09-15T19:06:18.924Z,62.96
2022-09-15T19:08:46.793Z,63.50
2022-09-15T19:11:14.647Z,63.58
2022-09-15T19:13:42.647Z,63.27
2022-09-15T19:16:11.857Z,63.59
2022-09-15T19:18:39.725Z,64.02
2022-09-15T19:21:08.924Z,64.28
2022-09-15T19:23:37.245Z,63.78
2022-09-15T19:26:05.854Z,64.23
2022-09-15T19:28:33.900Z,64.61
2022-09-15T19:31:01.827Z,64.61
2022-09-15T19:33:31.275Z,64.53
2022-09-15T19:36:26.766Z,65.08
2022-09-15T19:38:51.345Z,64.83
2022-09-15T19:41:19.176Z,65.01
2022-09-15T19:43:46.958Z,65.28
2022-09-15T19:46:15.755Z,64.95
2022-09-15T19:48:47.981Z,64.31
2022-09-15T19:51:19.295Z,64.33
2022-09-15T19:53:47.670Z,64.35
2022-09-15T19:56:17.389Z,64.88
2022-09-15T19:58:45.291Z,65.74
2022-09-15T20:01:13.350Z,65.92
2022-09-15T20:03:41.703Z,65.39
2022-09-15T20:06:10.999Z,65.75
2022-09-15T20:08:41.514Z,65.91
2022-09-15T20:11:10.081Z,65.71
2022-09-15T20:13:41.434Z,65.38
2022-09-15T20:16:09.643Z,65.35
2022-09-15T20:18:41.223Z,65.45
2022-09-15T20:21:10.386Z,64.88
2022-09-15T20:23:41.384Z,64.65
2022-09-15T20:26:11.817Z,64.72
2022-09-15T20:28:39.942Z,64.71
2022-09-15T20:31:35.011Z,64.35
2022-09-15T20:34:05.304Z,63.98
2022-09-15T20:36:36.552Z,63.63
2022-09-15T20:39:08.807Z,63.26
2022-09-15T20:41:36.996Z,63.00
2022-09-15T20:44:06.059Z,63.01
2022-09-15T20:46:33.869Z,64.23
2022-09-15T20:49:01.669Z,63.57
2022-09-15T20:51:32.054Z,63.74
2022-09-15T20:54:01.569Z,63.51
2022-09-15T20:56:32.427Z,63.04
2022-09-15T20:59:00.972Z,63.00
2022-09-15T21:01:31.888Z,63.04
2022-09-15T21:03:59.860Z,63.43
2022-09-15T21:06:29.278Z,63.06
2022-09-15T21:08:57.875Z,62.76
2022-09-15T21:11:27.512Z,63.35
2022-09-15T21:13:57.559Z,63.08
2022-09-15T21:16:28.817Z,63.18
2022-09-15T21:18:57.636Z,62.58
2022-09-15T21:21:27.321Z,62.63
2022-09-15T21:23:56.558Z,62.82
2022-09-15T21:26:26.710Z,62.78
2022-09-15T21:28:57.230Z,63.21
2022-09-15T21:31:27.569Z,63.34
2022-09-15T21:33:56.190Z,63.09
2022-09-15T21:36:25.237Z,63.58
2022-09-15T21:38:54.594Z,63.01
2022-09-15T21:41:24.204Z,62.25
2022-09-15T21:43:54.728Z,62.22
2022-09-15T21:46:26.591Z,61.82
2022-09-15T21:48:54.356Z,62.18
2022-09-15T21:51:24.977Z,62.77
2022-09-15T21:53:54.329Z,62.58
2022-09-15T21:56:23.133Z,62.33
2022-09-15T21:58:50.961Z,62.32
2022-09-15T22:01:20.113Z,61.39
2022-09-15T22:03:51.612Z,61.79
2022-09-15T22:06:20.964Z,61.92
2022-09-15T22:08:57.389Z,61.61
2022-09-15T22:11:25.462Z,61.49
2022-09-15T22:13:53.639Z,61.25
2022-09-15T22:16:24.039Z,61.12
2022-09-15T22:18:53.059Z,61.26
2022-09-15T22:21:22.627Z,61.43
2022-09-15T22:23:52.003Z,61.09
2022-09-15T22:26:23.364Z,61.16
2022-09-15T22:28:51.303Z,60.80
2022-09-15T22:31:22.574Z,60.96
2022-09-15T22:33:50.948Z,60.47
2022-09-15T22:36:25.107Z,60.68
2022-09-15T22:38:56.443Z,60.62
2022-09-15T22:41:27.309Z,61.01
2022-09-15T22:43:55.325Z,60.88
2022-09-15T22:46:23.254Z,61.10
2022-09-15T22:48:51.084Z,60.98
2022-09-15T22:51:18.894Z,60.13
2022-09-15T22:53:46.840Z,60.38
2022-09-15T22:56:19.894Z,61.43
2022-09-15T22:58:50.582Z,62.31
2022-09-15T23:01:20.888Z,63.68
2022-09-15T23:03:50.997Z,64.02
2022-09-15T23:06:18.832Z,64.45
2022-09-15T23:08:51.026Z,65.11
2022-09-15T23:11:19.503Z,66.41
2022-09-15T23:13:48.946Z,66.35
2022-09-15T23:16:17.726Z,66.88
2022-09-15T23:18:45.986Z,67.50
2022-09-15T23:21:14.921Z,67.43
2022-09-15T23:23:45.326Z,66.95
2022-09-15T23:26:14.046Z,66.34
2022-09-15T23:28:41.970Z,67.34
2022-09-15T23:31:17.434Z,67.74
2022-09-15T23:33:45.560Z,67.92
2022-09-15T23:36:15.283Z,68.26
2022-09-15T23:38:46.132Z,67.92
2022-09-15T23:41:15.188Z,67.66
2022-09-15T23:43:43.326Z,68.60
2022-09-15T23:46:11.307Z,68.08
2022-09-15T23:48:40.544Z,67.90
2022-09-15T23:51:08.872Z,68.02
2022-09-15T23:53:37.211Z,69.15
2022-09-15T23:56:05.483Z,69.56
2022-09-15T23:58:33.372Z,68.83
